Airfield :
LOGIN :

Register | Disclaimer

   EN    FR    IT 

 










Legend :    VFR   Marginal VFR   IFR   Intensive IFR   Very Intensive IFR
Visi :
Ceiling :
>= 8 km
>= 3000ft
5 to 8 km
1000 to 3000 ft
1500m to 5 km
500 to 1000 ft
800 to 1500m
200 to 500 ft
< 800m
< 200 ft
Symbols :   Thunderstorms  Fog  Heavy snow  Heavy precipitations  Wind > 20 kt
SIGMETs :     Misc.  Thunderstorms  Icing  Turbulence  Mountain Waves  Volcanic Ashes







- Airport Elevation : 995 ft
- IATA code : KTW


EPKT - Katowice

CURRENT METAR :
  • 200830Z 10005KT 0150 R27/0275N FG VV000 09/09 Q1017

EXPIRED METARs :
  • 200800Z 11007KT 0100 R27/0250N FG VV000 09/09 Q1017
  • 200730Z 12005KT 0100 R27/0250N FG VV000 09/09 Q1017
  • 200700Z VRB01KT 0100 R27/0225N FG VV000 09/09 Q1017
  • 200630Z VRB01KT 0150 R27/0250N FG VV000 09/08 Q1017
  • 200600Z VRB01KT 0200 R27/0300N FG VV000 07/07 Q1017

TAF TAF EPKT
Valid from the 20 at 06:00 until the 21 at 06:00 UTC


200530Z 2006/2106 11004KT 0100 FG OVC001
BECMG 2006/2009 4000 BR BKN005
TEMPO 2010/2015 7000 BKN012
BECMG 2017/2019 0500 FG BKN002
TEMPO 2020/2024 0100 FG OVC001
BECMG 2100/2103 4000 BR BKN005
No reported NOTAMs for that airfield.



MET'MAP, your aeronautical weather chart ! - Copyright ORBIFLY December 2007 - Disclaimer

ORBIFLY MET'MAP TEAM :

Programming & Development : Alexandra Zaïnal
Concept & Development : Baudouin d'Aumeries
Co-Development & Prog : Marc-Olivier Méhu
Technical & hardware support : Manuel Goepfert

Contact : metmap@orbifly.com




SOURCES & CREDITS :

   NOAA